createdAt,value
2018-03-18T00:02:20.629Z,-0.15
2018-03-18T00:04:49.656Z,-0.07
2018-03-18T00:07:17.917Z,-0.11
2018-03-18T00:09:46.179Z,-0.03
2018-03-18T00:12:15.210Z,-0.08
2018-03-18T00:14:43.468Z,-0.08
2018-03-18T00:17:12.496Z,-0.03
2018-03-18T00:19:40.770Z,-0.03
2018-03-18T00:22:09.017Z,0.18
2018-03-18T00:24:38.042Z,0.12
2018-03-18T00:27:06.310Z,0.19
2018-03-18T00:29:34.568Z,0.07
2018-03-18T00:32:02.831Z,-0.02
2018-03-18T00:34:31.099Z,-0.04
2018-03-18T00:36:59.348Z,0.03
2018-03-18T00:39:27.614Z,0.17
2018-03-18T00:41:56.645Z,0.13
2018-03-18T00:44:24.902Z,0.04
2018-03-18T00:46:53.163Z,0.06
2018-03-18T00:49:22.189Z,-0.04
2018-03-18T00:52:01.066Z,-0.05
2018-03-18T00:54:29.332Z,-0.16
2018-03-18T00:56:57.590Z,-0.12
2018-03-18T00:59:25.849Z,-0.13
2018-03-18T01:01:54.117Z,-0.31
2018-03-18T01:04:22.372Z,-0.30
2018-03-18T01:06:50.647Z,-0.25
2018-03-18T01:09:18.896Z,-0.26
2018-03-18T01:11:47.156Z,-0.06
2018-03-18T01:14:15.415Z,-0.33
2018-03-18T01:16:43.673Z,-0.47
2018-03-18T01:19:11.941Z,-0.50
2018-03-18T01:21:40.226Z,-0.50
2018-03-18T01:24:08.477Z,-0.56
2018-03-18T01:26:36.753Z,-0.61
2018-03-18T01:29:05.013Z,-0.62
2018-03-18T01:31:33.285Z,-0.60
2018-03-18T01:34:01.551Z,-0.70
2018-03-18T01:36:30.583Z,-0.79
2018-03-18T01:38:58.861Z,-0.59
2018-03-18T01:41:27.121Z,-0.62
2018-03-18T01:43:55.402Z,-0.63
2018-03-18T01:46:24.696Z,-0.76
2018-03-18T01:48:53.276Z,-0.71
2018-03-18T01:51:22.292Z,-0.84
2018-03-18T01:53:50.558Z,-0.74
2018-03-18T01:56:19.596Z,-0.86
2018-03-18T01:58:47.856Z,-0.80
2018-03-18T02:01:16.129Z,-0.77
2018-03-18T02:03:45.164Z,-0.82
2018-03-18T02:06:13.441Z,-0.87
2018-03-18T02:08:41.726Z,-0.76
2018-03-18T02:11:09.985Z,-0.74
2018-03-18T02:13:38.246Z,-0.79
2018-03-18T02:16:07.274Z,-0.79
2018-03-18T02:18:35.524Z,-0.86
2018-03-18T02:21:03.800Z,-0.96
2018-03-18T02:23:32.821Z,-0.76
2018-03-18T02:26:01.084Z,-0.94
2018-03-18T02:28:30.117Z,-1.03
2018-03-18T02:30:58.366Z,-1.00
2018-03-18T02:33:26.642Z,-0.93
2018-03-18T02:35:55.680Z,-1.07
2018-03-18T02:38:23.956Z,-1.01
2018-03-18T02:40:52.245Z,-1.02
2018-03-18T02:43:21.225Z,-1.03
2018-03-18T02:45:49.497Z,-1.06
2018-03-18T02:48:17.744Z,-1.02
2018-03-18T02:50:46.767Z,-1.04
2018-03-18T02:53:15.034Z,-1.08
2018-03-18T02:55:44.055Z,-1.06
2018-03-18T02:58:12.316Z,-1.08
2018-03-18T03:00:40.591Z,-1.07
2018-03-18T03:03:09.606Z,-1.03
2018-03-18T03:05:37.878Z,-1.05
2018-03-18T03:08:06.132Z,-0.91
2018-03-18T03:10:34.385Z,-1.05
2018-03-18T03:13:02.655Z,-1.03
2018-03-18T03:15:30.921Z,-1.09
2018-03-18T03:17:59.172Z,-1.11
2018-03-18T03:20:28.201Z,-0.98
2018-03-18T03:22:56.451Z,-1.14
2018-03-18T03:25:25.492Z,-1.06
2018-03-18T03:27:53.755Z,-1.01
2018-03-18T03:30:22.028Z,-0.92
2018-03-18T03:32:50.278Z,-1.10
2018-03-18T03:35:19.328Z,-1.18
2018-03-18T03:37:47.572Z,-1.20
2018-03-18T03:40:15.825Z,-1.05
2018-03-18T03:42:44.088Z,-1.19
2018-03-18T03:45:12.339Z,-1.20
2018-03-18T03:47:40.608Z,-1.20
2018-03-18T03:50:08.864Z,-1.14
2018-03-18T03:52:37.885Z,-1.20
2018-03-18T03:55:06.148Z,-1.17
2018-03-18T03:57:34.433Z,-1.11
2018-03-18T04:00:02.688Z,-1.13
2018-03-18T04:02:30.961Z,-1.12
2018-03-18T04:04:59.991Z,-0.96
2018-03-18T04:07:28.244Z,-0.95
2018-03-18T04:09:56.511Z,-1.25
2018-03-18T04:12:24.764Z,-1.35
2018-03-18T04:14:53.030Z,-1.46
2018-03-18T04:17:21.293Z,-1.50
2018-03-18T04:19:49.549Z,-1.57
2018-03-18T04:22:18.364Z,-1.58
2018-03-18T04:24:47.402Z,-1.47
2018-03-18T04:27:15.668Z,-1.55
2018-03-18T04:29:43.938Z,-1.52
2018-03-18T04:32:12.192Z,-1.55
2018-03-18T04:34:41.225Z,-1.59
2018-03-18T04:37:09.517Z,-1.54
2018-03-18T04:39:37.789Z,-1.54
2018-03-18T04:42:06.052Z,-1.54
2018-03-18T04:44:34.313Z,-1.55
2018-03-18T04:47:03.332Z,-1.79
2018-03-18T04:49:31.606Z,-1.80
2018-03-18T04:52:00.691Z,-1.84
2018-03-18T04:54:28.894Z,-1.83
2018-03-18T04:56:58.284Z,-1.83
2018-03-18T04:59:26.548Z,-1.81
2018-03-18T05:01:55.584Z,-1.78
2018-03-18T05:04:23.859Z,-1.77
2018-03-18T05:06:52.119Z,-1.83
2018-03-18T05:09:21.140Z,-1.80
2018-03-18T05:11:49.477Z,-1.72
2018-03-18T05:14:17.672Z,-1.72
2018-03-18T05:16:46.693Z,-1.81
2018-03-18T05:19:14.965Z,-1.84
2018-03-18T05:21:43.215Z,-1.84
2018-03-18T05:24:11.484Z,-1.87
2018-03-18T05:26:39.757Z,-1.80
2018-03-18T05:29:08.008Z,-1.66
2018-03-18T05:31:36.280Z,-1.67
2018-03-18T05:34:04.545Z,-1.76
2018-03-18T05:36:33.576Z,-1.78
2018-03-18T05:39:01.856Z,-1.74
2018-03-18T05:41:30.112Z,-1.82
2018-03-18T05:43:58.373Z,-1.75
2018-03-18T05:46:27.403Z,-1.76
2018-03-18T05:48:55.659Z,-1.82
2018-03-18T05:51:24.695Z,-1.79
2018-03-18T05:53:52.955Z,-1.78
2018-03-18T05:56:21.229Z,-1.78
2018-03-18T05:58:49.481Z,-1.66
2018-03-18T06:01:17.754Z,-1.63
2018-03-18T06:03:46.005Z,-1.83
2018-03-18T06:06:14.276Z,-1.88
2018-03-18T06:08:42.536Z,-1.77
2018-03-18T06:11:10.860Z,-1.68
2018-03-18T06:13:39.136Z,-1.68
2018-03-18T06:16:07.394Z,-1.63
2018-03-18T06:18:35.661Z,-1.56
2018-03-18T06:21:03.913Z,-1.61
2018-03-18T06:23:32.942Z,-1.67
2018-03-18T06:26:01.192Z,-1.73
2018-03-18T06:28:30.379Z,-1.72
2018-03-18T06:30:58.636Z,-1.73
2018-03-18T06:33:27.664Z,-1.81
2018-03-18T06:35:57.116Z,-1.65
2018-03-18T06:38:25.467Z,-1.54
2018-03-18T06:40:53.879Z,-1.60
2018-03-18T06:43:22.154Z,-1.61
2018-03-18T06:45:50.416Z,-1.58
2018-03-18T06:48:18.680Z,-1.59
2018-03-18T06:50:47.148Z,-1.56
2018-03-18T06:53:15.444Z,-1.61
2018-03-18T06:55:44.514Z,-1.58
2018-03-18T06:58:12.768Z,-1.46
2018-03-18T07:00:41.088Z,-1.69
2018-03-18T07:03:09.351Z,-1.58
2018-03-18T07:05:37.876Z,-1.29
2018-03-18T07:08:06.887Z,-1.27
2018-03-18T07:10:35.197Z,-1.11
2018-03-18T07:13:03.452Z,-1.12
2018-03-18T07:15:31.706Z,-1.17
2018-03-18T07:17:59.973Z,-1.12
2018-03-18T07:20:28.304Z,-1.33
2018-03-18T07:22:56.561Z,-1.58
2018-03-18T07:25:25.582Z,-1.53
2018-03-18T07:27:53.949Z,-1.70
2018-03-18T07:30:22.346Z,-1.48
2018-03-18T07:32:51.191Z,-1.35
2018-03-18T07:35:19.514Z,-1.24
2018-03-18T07:37:47.716Z,-1.30
2018-03-18T07:40:16.026Z,-1.44
2018-03-18T07:42:44.302Z,-1.20
2018-03-18T07:45:12.557Z,-1.15
2018-03-18T07:47:40.831Z,-0.73
2018-03-18T07:50:09.088Z,-1.15
2018-03-18T07:52:39.358Z,-0.92
2018-03-18T07:55:07.620Z,-0.94
2018-03-18T07:57:35.881Z,-0.91
2018-03-18T08:00:04.144Z,-0.62
2018-03-18T08:02:33.184Z,-0.45
2018-03-18T08:05:01.437Z,-0.45
2018-03-18T08:07:29.734Z,-0.32
2018-03-18T08:09:57.961Z,-0.08
2018-03-18T08:12:26.224Z,0.09
2018-03-18T08:14:54.481Z,0.32
2018-03-18T08:17:22.756Z,-0.60
2018-03-18T08:19:51.025Z,-0.06
2018-03-18T08:22:19.275Z,0.18
2018-03-18T08:24:47.541Z,-0.08
2018-03-18T08:27:15.800Z,-0.22
2018-03-18T08:29:44.060Z,-0.33
2018-03-18T08:32:12.320Z,-0.20
2018-03-18T08:34:40.584Z,0.06
2018-03-18T08:37:09.609Z,0.01
2018-03-18T08:39:37.864Z,-0.20
2018-03-18T08:42:06.898Z,-0.09
2018-03-18T08:44:35.156Z,-0.49
2018-03-18T08:47:04.200Z,0.18
2018-03-18T08:49:32.471Z,0.08
2018-03-18T08:52:00.723Z,0.00
2018-03-18T08:54:29.944Z,-0.07
2018-03-18T08:56:58.211Z,-0.12
2018-03-18T08:59:26.480Z,-0.20
2018-03-18T09:01:54.759Z,-0.38
2018-03-18T09:04:25.040Z,-0.76
2018-03-18T09:06:53.284Z,-0.51
2018-03-18T09:09:21.567Z,-0.45
2018-03-18T09:11:49.818Z,-0.12
2018-03-18T09:14:18.837Z,0.47
2018-03-18T09:16:47.096Z,0.49
2018-03-18T09:19:16.122Z,0.35
2018-03-18T09:21:44.383Z,0.24
2018-03-18T09:24:13.404Z,0.27
2018-03-18T09:26:43.316Z,-0.30
2018-03-18T09:29:11.833Z,-0.53
2018-03-18T09:31:40.083Z,-0.35
2018-03-18T09:34:08.331Z,0.30
2018-03-18T09:36:37.373Z,-0.50
2018-03-18T09:39:05.629Z,-0.37
2018-03-18T09:41:33.884Z,-0.09
2018-03-18T09:44:02.918Z,0.39
2018-03-18T09:46:31.167Z,-0.59
2018-03-18T09:49:00.230Z,-0.67
2018-03-18T09:51:28.489Z,-0.82
2018-03-18T09:53:56.753Z,-0.89
2018-03-18T09:56:25.349Z,-0.52
2018-03-18T09:58:53.593Z,-0.59
2018-03-18T10:01:22.622Z,-0.85
2018-03-18T10:03:50.912Z,-0.70
2018-03-18T10:06:19.168Z,-0.39
2018-03-18T10:08:48.205Z,0.02
2018-03-18T10:11:16.481Z,0.59
2018-03-18T10:13:44.732Z,-0.01
2018-03-18T10:16:12.997Z,-0.30
2018-03-18T10:18:42.024Z,0.46
2018-03-18T10:21:10.284Z,0.57
2018-03-18T10:23:38.552Z,0.47
2018-03-18T10:26:07.579Z,0.77
2018-03-18T10:28:35.855Z,0.45
2018-03-18T10:31:04.137Z,-0.02
2018-03-18T10:33:32.396Z,0.21
2018-03-18T10:36:01.433Z,0.46
2018-03-18T10:38:29.785Z,0.45
2018-03-18T10:40:58.040Z,1.08
2018-03-18T10:43:26.308Z,1.36
2018-03-18T10:45:54.577Z,1.10
2018-03-18T10:48:22.826Z,1.24
2018-03-18T10:50:51.084Z,0.83
2018-03-18T10:53:20.112Z,0.51
2018-03-18T10:55:48.363Z,0.93
2018-03-18T10:58:17.392Z,0.90
2018-03-18T11:00:53.956Z,0.62
2018-03-18T11:03:23.544Z,0.83
2018-03-18T11:05:51.808Z,0.88
2018-03-18T11:08:20.843Z,0.79
2018-03-18T11:10:49.946Z,0.72
2018-03-18T11:13:18.192Z,0.65
2018-03-18T11:15:47.229Z,1.16
2018-03-18T11:18:15.479Z,0.74
2018-03-18T11:20:44.492Z,1.08
2018-03-18T11:23:12.749Z,0.83
2018-03-18T11:25:42.598Z,1.41
2018-03-18T11:28:10.870Z,1.41
2018-03-18T11:30:39.131Z,1.14
2018-03-18T11:33:08.171Z,1.46
2018-03-18T11:35:36.531Z,1.25
2018-03-18T11:38:04.791Z,0.99
2018-03-18T11:40:33.823Z,0.71
2018-03-18T11:43:02.108Z,0.75
2018-03-18T11:45:30.344Z,1.27
2018-03-18T11:47:59.375Z,1.23
2018-03-18T11:50:27.809Z,1.05
2018-03-18T11:52:56.116Z,0.89
2018-03-18T11:55:24.374Z,1.28
2018-03-18T11:57:52.652Z,1.22
2018-03-18T12:00:20.896Z,0.97
2018-03-18T12:02:49.155Z,1.67
2018-03-18T12:05:17.516Z,0.80
2018-03-18T12:07:46.533Z,1.41
2018-03-18T12:10:14.798Z,0.80
2018-03-18T12:12:43.054Z,0.98
2018-03-18T12:15:11.332Z,0.90
2018-03-18T12:17:41.599Z,0.89
2018-03-18T12:20:09.839Z,1.04
2018-03-18T12:22:38.099Z,1.45
2018-03-18T12:25:06.356Z,1.02
2018-03-18T12:27:34.604Z,0.69
2018-03-18T12:30:03.638Z,0.68
2018-03-18T12:32:31.900Z,0.84
2018-03-18T12:35:00.165Z,1.00
2018-03-18T12:37:28.434Z,1.34
2018-03-18T12:40:14.895Z,0.78
2018-03-18T12:43:00.696Z,0.77
2018-03-18T12:45:28.960Z,0.87
2018-03-18T12:47:57.231Z,0.71
2018-03-18T12:50:25.871Z,0.91
2018-03-18T12:52:54.139Z,1.02
2018-03-18T12:55:23.171Z,0.75
2018-03-18T12:57:51.418Z,0.77
2018-03-18T13:00:20.457Z,0.81
2018-03-18T13:02:48.704Z,0.78
2018-03-18T13:05:17.728Z,0.74
2018-03-18T13:07:45.991Z,0.92
2018-03-18T13:10:14.257Z,0.95
2018-03-18T13:12:43.277Z,1.32
2018-03-18T13:15:11.540Z,0.99
2018-03-18T13:17:40.568Z,1.13
2018-03-18T13:20:08.820Z,0.74
2018-03-18T13:22:37.668Z,0.31
2018-03-18T13:25:05.925Z,0.44
2018-03-18T13:27:34.176Z,0.37
2018-03-18T13:30:02.429Z,0.53
2018-03-18T13:32:31.879Z,0.41
2018-03-18T13:35:00.140Z,0.91
2018-03-18T13:37:28.410Z,0.97
2018-03-18T13:39:57.431Z,0.63
2018-03-18T13:42:25.695Z,0.55
2018-03-18T13:44:54.733Z,0.84
2018-03-18T13:47:23.009Z,0.72
2018-03-18T13:49:51.252Z,1.17
2018-03-18T13:52:20.277Z,0.90
2018-03-18T13:54:48.535Z,0.90
2018-03-18T13:57:16.792Z,0.65
2018-03-18T13:59:45.120Z,1.13
2018-03-18T14:02:13.399Z,1.04
2018-03-18T14:04:42.908Z,0.86
2018-03-18T14:07:11.179Z,1.14
2018-03-18T14:09:39.656Z,0.58
2018-03-18T14:12:08.672Z,0.28
2018-03-18T14:14:36.924Z,0.50
2018-03-18T14:17:05.947Z,0.57
2018-03-18T14:19:34.200Z,0.35
2018-03-18T14:22:03.212Z,0.70
2018-03-18T14:24:31.768Z,0.28
2018-03-18T14:27:00.022Z,0.02
2018-03-18T14:29:28.276Z,-0.06
2018-03-18T14:31:56.541Z,0.06
2018-03-18T14:34:24.788Z,1.15
2018-03-18T14:36:53.045Z,1.47
2018-03-18T14:39:21.292Z,0.33
2018-03-18T14:41:49.553Z,0.23
2018-03-18T14:44:18.572Z,-0.26
2018-03-18T14:46:46.913Z,-0.41
2018-03-18T14:49:15.199Z,-0.30
2018-03-18T14:51:43.464Z,-0.23
2018-03-18T14:54:11.737Z,-0.35
2018-03-18T14:56:39.992Z,-0.60
2018-03-18T14:59:08.265Z,-0.59
2018-03-18T15:01:36.564Z,-0.52
2018-03-18T15:04:04.780Z,-0.39
2018-03-18T15:06:34.073Z,-0.28
2018-03-18T15:09:02.331Z,-0.59
2018-03-18T15:11:30.613Z,-0.64
2018-03-18T15:13:58.864Z,-0.65
2018-03-18T15:16:27.122Z,-0.68
2018-03-18T15:18:56.145Z,-0.69
2018-03-18T15:21:24.400Z,-0.72
2018-03-18T15:23:53.441Z,-0.64
2018-03-18T15:26:21.694Z,-0.56
2018-03-18T15:28:49.965Z,-0.89
2018-03-18T15:31:18.230Z,-0.80
2018-03-18T15:33:47.274Z,-0.93
2018-03-18T15:36:15.536Z,-0.90
2018-03-18T15:38:43.800Z,-0.86
2018-03-18T15:41:12.069Z,-0.83
2018-03-18T15:43:41.102Z,-0.99
2018-03-18T15:46:09.525Z,-0.96
2018-03-18T15:48:37.782Z,-1.02
2018-03-18T15:51:06.063Z,-0.98
2018-03-18T15:53:34.314Z,-1.11
2018-03-18T15:56:02.590Z,-0.79
2018-03-18T15:58:30.840Z,-0.99
2018-03-18T16:00:59.101Z,-1.12
2018-03-18T16:03:27.364Z,-1.07
2018-03-18T16:05:55.620Z,-0.96
2018-03-18T16:08:23.900Z,-1.12
2018-03-18T16:10:52.153Z,-1.14
2018-03-18T16:13:21.183Z,-1.16
2018-03-18T16:15:49.468Z,-1.23
2018-03-18T16:18:18.004Z,-1.17
2018-03-18T16:20:46.277Z,-1.17
2018-03-18T16:23:14.592Z,-1.29
2018-03-18T16:25:42.862Z,-1.23
2018-03-18T16:28:11.886Z,-1.31
2018-03-18T16:30:57.588Z,-1.31
2018-03-18T16:33:25.852Z,-1.26
2018-03-18T16:35:54.182Z,-1.39
2018-03-18T16:38:22.447Z,-1.40
2018-03-18T16:40:50.693Z,-1.34
2018-03-18T16:43:18.956Z,-1.43
2018-03-18T16:45:47.212Z,-1.45
2018-03-18T16:48:15.517Z,-1.39
2018-03-18T16:50:43.779Z,-1.46
2018-03-18T16:53:12.045Z,-1.49
2018-03-18T16:55:40.294Z,-1.54
2018-03-18T16:58:08.552Z,-1.56
2018-03-18T17:00:36.923Z,-1.55
2018-03-18T17:03:05.176Z,-1.41
2018-03-18T17:05:33.429Z,-1.21
2018-03-18T17:08:01.693Z,-1.24
2018-03-18T17:10:29.960Z,-1.50
2018-03-18T17:12:58.229Z,-1.54
2018-03-18T17:15:27.189Z,-1.56
2018-03-18T17:17:55.452Z,-1.55
2018-03-18T17:20:23.721Z,-1.55
2018-03-18T17:22:51.976Z,-1.65
2018-03-18T17:25:20.237Z,-1.57
2018-03-18T17:27:48.501Z,-1.64
2018-03-18T17:30:17.516Z,-1.73
2018-03-18T17:32:45.796Z,-1.74
2018-03-18T17:35:14.827Z,-1.83
2018-03-18T17:37:43.088Z,-1.84
2018-03-18T17:40:11.352Z,-1.82
2018-03-18T17:42:40.385Z,-1.69
2018-03-18T17:45:26.256Z,-1.81
2018-03-18T17:51:21.596Z,-1.92
2018-03-18T17:54:07.368Z,-1.99
2018-03-18T17:56:38.144Z,-2.05
2018-03-18T17:59:07.176Z,-2.03
2018-03-18T18:01:35.432Z,-2.06
2018-03-18T18:04:03.705Z,-2.05
2018-03-18T18:06:32.733Z,-2.11
2018-03-18T18:09:00.983Z,-1.85
2018-03-18T18:11:30.002Z,-1.94
2018-03-18T18:13:58.273Z,-2.12
2018-03-18T18:16:26.532Z,-2.08
2018-03-18T18:18:55.558Z,-2.06
2018-03-18T18:21:23.814Z,-2.10
2018-03-18T18:23:52.849Z,-2.11
2018-03-18T18:26:21.114Z,-2.10
2018-03-18T18:28:49.403Z,-1.88
2018-03-18T18:31:17.660Z,-1.95
2018-03-18T18:33:47.961Z,-2.17
2018-03-18T18:36:16.213Z,-2.15
2018-03-18T18:38:44.472Z,-2.16
2018-03-18T18:41:12.751Z,-2.17
2018-03-18T18:43:41.039Z,-2.09
2018-03-18T18:46:10.136Z,-2.12
2018-03-18T18:48:38.392Z,-2.16
2018-03-18T18:51:07.424Z,-2.13
2018-03-18T18:53:35.685Z,-2.09
2018-03-18T18:56:05.568Z,-2.20
2018-03-18T18:58:33.858Z,-2.21
2018-03-18T19:01:02.947Z,-2.18
2018-03-18T19:03:31.261Z,-2.23
2018-03-18T19:06:00.436Z,-2.21
2018-03-18T19:08:29.517Z,-2.15
2018-03-18T19:10:57.793Z,-2.24
2018-03-18T19:13:26.170Z,-2.26
2018-03-18T19:15:54.544Z,-2.31
2018-03-18T19:18:23.672Z,-2.08
2018-03-18T19:20:51.986Z,-2.09
2018-03-18T19:23:20.949Z,-2.10
2018-03-18T19:25:49.216Z,-2.13
2018-03-18T19:28:17.486Z,-2.18
2018-03-18T19:30:45.749Z,-2.26
2018-03-18T19:33:14.285Z,-2.31
2018-03-18T19:35:43.313Z,-2.39
2018-03-18T19:38:11.772Z,-2.23
2018-03-18T19:40:40.801Z,-2.33
2018-03-18T19:43:09.104Z,-2.34
2018-03-18T19:45:37.364Z,-2.44
2018-03-18T19:48:05.647Z,-2.46
2018-03-18T19:50:34.481Z,-2.26
2018-03-18T19:53:02.787Z,-2.44
2018-03-18T19:55:31.055Z,-2.51
2018-03-18T19:58:00.609Z,-2.51
2018-03-18T20:00:28.868Z,-2.46
2018-03-18T20:02:57.910Z,-2.30
2018-03-18T20:05:26.196Z,-2.35
2018-03-18T20:07:54.487Z,-2.53
2018-03-18T20:10:22.833Z,-2.59
2018-03-18T20:12:51.111Z,-2.48
2018-03-18T20:15:19.382Z,-2.53
2018-03-18T20:17:47.655Z,-2.37
2018-03-18T20:20:16.835Z,-2.39
2018-03-18T20:22:45.084Z,-2.44
2018-03-18T20:25:13.436Z,-2.45
2018-03-18T20:27:41.742Z,-2.49
2018-03-18T20:30:10.097Z,-2.52
2018-03-18T20:32:39.780Z,-2.54
2018-03-18T20:35:08.809Z,-2.52
2018-03-18T20:37:37.078Z,-2.57
2018-03-18T20:40:05.344Z,-2.69
2018-03-18T20:42:34.409Z,-2.49
2018-03-18T20:45:02.696Z,-2.56
2018-03-18T20:47:31.289Z,-2.70
2018-03-18T20:50:06.480Z,-2.71
2018-03-18T20:52:34.731Z,-2.56
2018-03-18T20:55:03.760Z,-2.59
2018-03-18T20:57:32.021Z,-2.61
2018-03-18T21:00:00.273Z,-2.52
2018-03-18T21:02:29.832Z,-2.45
2018-03-18T21:04:58.092Z,-2.52
2018-03-18T21:07:26.368Z,-2.62
2018-03-18T21:09:54.633Z,-2.65
2018-03-18T21:12:23.680Z,-2.58
2018-03-18T21:14:51.938Z,-2.64
2018-03-18T21:17:20.204Z,-2.63
2018-03-18T21:19:49.311Z,-2.62
2018-03-18T21:22:17.584Z,-2.54
2018-03-18T21:24:46.612Z,-2.83
2018-03-18T21:27:14.889Z,-2.82
2018-03-18T21:29:43.144Z,-2.82
2018-03-18T21:32:11.417Z,-2.55
2018-03-18T21:34:40.660Z,-2.67
2018-03-18T21:37:08.924Z,-2.73
2018-03-18T21:39:37.187Z,-2.64
2018-03-18T21:42:06.204Z,-2.54
2018-03-18T21:44:35.223Z,-2.60
2018-03-18T21:47:03.568Z,-2.58
2018-03-18T21:49:31.820Z,-2.61
2018-03-18T21:52:00.143Z,-2.60
2018-03-18T21:54:28.390Z,-2.85
2018-03-18T21:56:57.430Z,-2.92
2018-03-18T21:59:25.702Z,-2.77
2018-03-18T22:01:53.978Z,-2.73
2018-03-18T22:04:22.236Z,-2.80
2018-03-18T22:06:51.268Z,-2.61
2018-03-18T22:09:19.541Z,-2.84
2018-03-18T22:11:47.793Z,-2.87
2018-03-18T22:14:16.833Z,-2.92
2018-03-18T22:16:45.094Z,-2.72
2018-03-18T22:19:13.592Z,-2.70
2018-03-18T22:21:41.834Z,-2.71
2018-03-18T22:24:10.900Z,-2.66
2018-03-18T22:26:39.192Z,-2.87
2018-03-18T22:29:07.476Z,-2.71
2018-03-18T22:31:35.714Z,-2.75
2018-03-18T22:34:03.977Z,-2.86
2018-03-18T22:36:32.244Z,-2.86
2018-03-18T22:39:01.272Z,-2.99
2018-03-18T22:41:29.535Z,-2.72
2018-03-18T22:43:57.779Z,-2.84
2018-03-18T22:46:26.048Z,-2.96
2018-03-18T22:48:54.314Z,-2.73
2018-03-18T22:51:22.591Z,-2.76
2018-03-18T22:53:50.843Z,-2.80
2018-03-18T22:56:19.116Z,-2.91
2018-03-18T22:58:47.383Z,-2.89
2018-03-18T23:01:15.636Z,-2.95
2018-03-18T23:03:43.888Z,-2.76
2018-03-18T23:06:12.159Z,-2.87
2018-03-18T23:08:40.427Z,-2.98
2018-03-18T23:11:08.705Z,-2.98
2018-03-18T23:13:36.969Z,-3.02
2018-03-18T23:16:06.008Z,-2.90
2018-03-18T23:18:34.261Z,-2.79
2018-03-18T23:21:02.537Z,-2.84
2018-03-18T23:23:30.788Z,-3.07
2018-03-18T23:25:59.039Z,-2.77
2018-03-18T23:28:27.307Z,-2.94
2018-03-18T23:30:55.570Z,-2.91
2018-03-18T23:33:23.832Z,-2.94
2018-03-18T23:35:52.085Z,-2.78
2018-03-18T23:38:20.340Z,-2.79
2018-03-18T23:40:48.612Z,-3.06
2018-03-18T23:43:16.864Z,-3.04
2018-03-18T23:45:45.119Z,-3.03
2018-03-18T23:48:14.152Z,-3.08
2018-03-18T23:50:48.387Z,-3.05
2018-03-18T23:53:16.655Z,-3.04
2018-03-18T23:55:44.919Z,-3.03
2018-03-18T23:58:13.188Z,-2.92
